createdAt,value
2022-08-08T00:02:03.230Z,16.10
2022-08-08T00:04:36.604Z,16.10
2022-08-08T00:07:20.342Z,16.10
2022-08-08T00:09:55.766Z,16.00
2022-08-08T00:12:31.903Z,16.00
2022-08-08T00:15:57.724Z,16.00
2022-08-08T00:18:47.815Z,16.00
2022-08-08T00:21:25.151Z,16.00
2022-08-08T00:24:06.741Z,16.00
2022-08-08T00:26:50.373Z,16.00
2022-08-08T00:29:44.822Z,16.00
2022-08-08T00:32:35.219Z,16.00
2022-08-08T00:35:20.053Z,16.00
2022-08-08T00:38:31.015Z,15.90
2022-08-08T00:41:54.425Z,15.80
2022-08-08T00:44:45.203Z,15.80
2022-08-08T00:48:05.276Z,15.80
2022-08-08T00:51:08.121Z,15.70
2022-08-08T00:54:16.095Z,15.50
2022-08-08T00:57:23.491Z,15.40
2022-08-08T01:00:14.263Z,15.20
2022-08-08T01:04:01.661Z,15.10
2022-08-08T01:06:27.091Z,15.20
2022-08-08T01:09:36.886Z,15.10
2022-08-08T01:12:41.999Z,15.20
2022-08-08T01:15:53.232Z,15.20
2022-08-08T01:18:53.341Z,15.20
2022-08-08T01:22:12.166Z,15.20
2022-08-08T01:24:54.361Z,15.20
2022-08-08T01:27:44.472Z,15.20
2022-08-08T01:30:28.749Z,15.20
2022-08-08T01:33:43.255Z,15.20
2022-08-08T01:36:48.433Z,15.10
2022-08-08T01:39:49.661Z,15.10
2022-08-08T01:42:44.431Z,15.20
2022-08-08T01:45:56.298Z,15.10
2022-08-08T01:48:31.271Z,15.20
2022-08-08T01:51:30.248Z,15.20
2022-08-08T01:55:26.039Z,15.10
2022-08-08T01:58:11.261Z,15.10
2022-08-08T02:00:35.888Z,15.00
2022-08-08T02:03:54.354Z,14.90
2022-08-08T02:06:55.785Z,14.90
2022-08-08T02:10:02.631Z,14.80
2022-08-08T02:12:52.874Z,14.70
2022-08-08T02:15:34.838Z,14.60
2022-08-08T02:18:34.443Z,14.60
2022-08-08T02:21:42.621Z,14.50
2022-08-08T02:24:24.798Z,14.40
2022-08-08T02:27:04.841Z,14.40
2022-08-08T02:30:02.606Z,14.40
2022-08-08T02:32:59.459Z,14.40
2022-08-08T02:36:03.684Z,14.40
2022-08-08T02:39:42.344Z,14.40
2022-08-08T02:42:35.854Z,14.40
2022-08-08T02:45:27.842Z,14.40
2022-08-08T02:48:27.656Z,14.40
2022-08-08T02:51:30.200Z,14.30
2022-08-08T02:54:52.908Z,14.20
2022-08-08T02:57:45.095Z,14.20
2022-08-08T03:00:39.031Z,14.10
2022-08-08T03:03:46.292Z,14.10
2022-08-08T03:06:38.356Z,14.10
2022-08-08T03:09:21.330Z,14.10
2022-08-08T03:12:14.971Z,14.10
2022-08-08T03:15:56.985Z,14.10
2022-08-08T03:18:31.458Z,14.00
2022-08-08T03:21:09.962Z,14.00
2022-08-08T03:23:59.732Z,14.00
2022-08-08T03:26:42.475Z,14.00
2022-08-08T03:29:20.882Z,14.00
2022-08-08T03:32:31.043Z,14.00
2022-08-08T03:35:05.686Z,13.90
2022-08-08T03:38:53.156Z,13.90
2022-08-08T03:40:33.765Z,13.80
2022-08-08T03:43:15.718Z,13.70
2022-08-08T03:46:05.194Z,13.70
2022-08-08T03:49:26.509Z,13.70
2022-08-08T03:51:50.450Z,13.70
2022-08-08T03:54:41.637Z,13.70
2022-08-08T03:58:29.880Z,13.70
2022-08-08T04:00:12.309Z,13.70
2022-08-08T04:03:11.491Z,13.70
2022-08-08T04:05:49.639Z,13.60
2022-08-08T04:08:33.646Z,13.60
2022-08-08T04:11:11.407Z,13.50
2022-08-08T04:14:03.266Z,13.40
2022-08-08T04:16:38.512Z,13.40
2022-08-08T04:19:23.103Z,13.40
2022-08-08T04:21:56.043Z,13.30
2022-08-08T04:24:29.536Z,13.20
2022-08-08T04:27:10.371Z,13.20
2022-08-08T04:29:44.736Z,13.20
2022-08-08T04:32:34.096Z,13.30
2022-08-08T04:35:07.031Z,13.40
2022-08-08T04:37:45.010Z,13.40
2022-08-08T04:40:23.997Z,13.50
2022-08-08T04:43:00.760Z,13.50
2022-08-08T04:45:33.791Z,13.60
2022-08-08T04:48:05.758Z,13.60
2022-08-08T04:50:38.977Z,13.70
2022-08-08T04:53:53.077Z,13.70
2022-08-08T04:56:04.350Z,13.70
2022-08-08T04:58:36.153Z,13.70
2022-08-08T05:01:11.021Z,13.80
2022-08-08T05:04:11.239Z,13.80
2022-08-08T05:06:36.263Z,13.80
2022-08-08T05:09:08.520Z,13.90
2022-08-08T05:11:40.832Z,13.90
2022-08-08T05:14:14.087Z,13.90
2022-08-08T05:16:53.747Z,14.00
2022-08-08T05:20:12.631Z,14.10
2022-08-08T05:22:27.681Z,14.10
2022-08-08T05:24:59.562Z,14.10
2022-08-08T05:27:33.310Z,14.20
2022-08-08T05:30:06.092Z,14.30
2022-08-08T05:32:39.357Z,14.40
2022-08-08T05:35:13.884Z,14.50
2022-08-08T05:38:31.911Z,14.50
2022-08-08T05:41:04.787Z,14.60
2022-08-08T05:44:03.425Z,14.70
2022-08-08T05:46:35.494Z,14.80
2022-08-08T05:49:11.333Z,14.90
2022-08-08T05:51:48.885Z,15.00
2022-08-08T05:54:27.065Z,15.10
2022-08-08T05:57:16.303Z,15.10
2022-08-08T06:00:25.026Z,15.20
2022-08-08T06:03:17.543Z,15.30
2022-08-08T06:06:01.366Z,15.40
2022-08-08T06:08:55.199Z,15.40
2022-08-08T06:11:33.371Z,15.50
2022-08-08T06:14:12.913Z,15.60
2022-08-08T06:16:52.155Z,15.80
2022-08-08T06:19:26.004Z,16.00
2022-08-08T06:21:59.482Z,16.20
2022-08-08T06:24:35.881Z,16.30
2022-08-08T06:27:11.062Z,16.40
2022-08-08T06:30:01.086Z,16.50
2022-08-08T06:32:50.264Z,16.70
2022-08-08T06:36:04.324Z,16.80
2022-08-08T06:38:21.587Z,16.80
2022-08-08T06:41:06.614Z,16.90
2022-08-08T06:43:47.659Z,17.00
2022-08-08T06:46:30.079Z,17.10
2022-08-08T06:49:02.197Z,17.30
2022-08-08T06:51:47.120Z,17.40
2022-08-08T06:54:25.919Z,17.50
2022-08-08T06:56:59.722Z,17.70
2022-08-08T06:59:34.443Z,17.80
2022-08-08T07:02:28.675Z,17.90
2022-08-08T07:05:11.882Z,18.00
2022-08-08T07:07:53.088Z,18.10
2022-08-08T07:10:33.947Z,18.20
2022-08-08T07:13:10.995Z,18.30
2022-08-08T07:16:10.255Z,18.50
2022-08-08T07:18:46.614Z,18.60
2022-08-08T07:21:31.312Z,18.60
2022-08-08T07:24:12.795Z,18.70
2022-08-08T07:26:50.729Z,18.80
2022-08-08T07:29:59.985Z,19.00
2022-08-08T07:32:17.401Z,19.10
2022-08-08T07:35:00.317Z,19.30
2022-08-08T07:37:56.105Z,19.40
2022-08-08T07:40:29.936Z,19.50
2022-08-08T07:43:09.529Z,19.70
2022-08-08T07:46:05.366Z,19.80
2022-08-08T07:48:35.683Z,19.90
2022-08-08T07:51:22.843Z,20.00
2022-08-08T07:54:26.424Z,20.10
2022-08-08T07:57:17.035Z,20.30
2022-08-08T08:00:13.355Z,20.40
2022-08-08T08:03:03.235Z,20.50
2022-08-08T08:05:51.026Z,20.50
2022-08-08T08:08:41.819Z,20.70
2022-08-08T08:11:33.576Z,20.90
2022-08-08T08:14:11.347Z,21.10
2022-08-08T08:16:50.578Z,21.20
2022-08-08T08:19:31.913Z,21.30
2022-08-08T08:22:31.786Z,21.30
2022-08-08T08:25:07.826Z,21.40
2022-08-08T08:27:46.557Z,21.70
2022-08-08T08:30:19.180Z,21.70
2022-08-08T08:32:51.905Z,21.70
2022-08-08T08:35:30.054Z,22.00
2022-08-08T08:38:18.037Z,22.00
2022-08-08T08:40:51.521Z,22.20
2022-08-08T08:43:26.669Z,22.20
2022-08-08T08:46:03.352Z,22.30
2022-08-08T08:48:47.498Z,22.30
2022-08-08T08:51:25.115Z,22.40
2022-08-08T08:54:01.039Z,22.40
2022-08-08T08:56:34.935Z,22.50
2022-08-08T08:59:08.910Z,22.70
2022-08-08T09:01:51.095Z,23.00
2022-08-08T09:04:30.251Z,23.40
2022-08-08T09:07:12.282Z,24.10
2022-08-08T09:09:57.692Z,25.10
2022-08-08T09:12:33.890Z,26.10
2022-08-08T09:15:07.607Z,27.40
2022-08-08T09:17:52.370Z,28.30
2022-08-08T09:22:00.318Z,29.30
2022-08-08T09:23:25.950Z,29.80
2022-08-08T09:26:26.335Z,30.60
2022-08-08T09:29:09.421Z,31.40
2022-08-08T09:31:56.814Z,31.90
2022-08-08T09:34:34.673Z,31.80
2022-08-08T09:37:39.685Z,31.70
2022-08-08T09:40:00.738Z,31.80
2022-08-08T09:42:34.603Z,32.30
2022-08-08T09:46:01.247Z,32.60
2022-08-08T09:48:17.783Z,32.80
2022-08-08T09:50:56.033Z,32.90
2022-08-08T09:53:59.189Z,32.90
2022-08-08T09:56:41.080Z,32.90
2022-08-08T10:02:21.415Z,32.40
2022-08-08T10:05:07.093Z,32.20
2022-08-08T10:08:00.075Z,32.40
2022-08-08T10:10:33.995Z,32.80
2022-08-08T10:13:32.181Z,32.80
2022-08-08T10:16:07.278Z,32.50
2022-08-08T10:18:40.936Z,32.40
2022-08-08T10:21:23.183Z,32.90
2022-08-08T10:24:04.095Z,33.20
2022-08-08T10:26:59.681Z,33.70
2022-08-08T10:30:16.532Z,33.90
2022-08-08T10:33:02.394Z,35.00
2022-08-08T10:36:08.342Z,35.10
2022-08-08T10:38:34.728Z,34.70
2022-08-08T10:41:07.417Z,34.70
2022-08-08T10:43:43.101Z,34.60
2022-08-08T10:46:29.682Z,34.50
2022-08-08T10:49:02.399Z,34.30
2022-08-08T10:51:41.013Z,34.20
2022-08-08T10:54:25.123Z,34.10
2022-08-08T10:57:03.669Z,33.70
2022-08-08T10:59:40.056Z,34.30
2022-08-08T11:02:14.016Z,34.60
2022-08-08T11:04:53.557Z,35.10
2022-08-08T11:08:31.649Z,34.60
2022-08-08T11:10:28.988Z,34.00
2022-08-08T11:13:28.552Z,33.90
2022-08-08T11:16:00.745Z,33.90
2022-08-08T11:18:40.310Z,34.40
2022-08-08T11:21:19.728Z,34.50
2022-08-08T11:24:02.250Z,33.00
2022-08-08T11:26:38.382Z,32.30
2022-08-08T11:29:50.779Z,32.50
2022-08-08T11:32:29.496Z,32.70
2022-08-08T11:35:27.786Z,31.60
2022-08-08T11:38:36.629Z,30.40
2022-08-08T11:40:57.157Z,29.50
2022-08-08T11:43:39.221Z,29.30
2022-08-08T11:46:18.509Z,29.10
2022-08-08T11:48:52.129Z,28.90
2022-08-08T11:51:29.585Z,28.80
2022-08-08T11:54:26.634Z,28.40
2022-08-08T11:57:34.806Z,28.00
2022-08-08T12:00:07.837Z,27.70
2022-08-08T12:02:51.142Z,27.30
2022-08-08T12:05:38.725Z,27.30
2022-08-08T12:08:11.375Z,27.50
2022-08-08T12:10:51.241Z,27.60
2022-08-08T12:13:38.181Z,27.80
2022-08-08T12:16:19.059Z,27.90
2022-08-08T12:18:52.118Z,27.90
2022-08-08T12:22:00.659Z,27.70
2022-08-08T12:24:21.515Z,27.60
2022-08-08T12:27:00.112Z,27.50
2022-08-08T12:29:40.580Z,27.40
2022-08-08T12:32:20.186Z,27.40
2022-08-08T12:35:04.694Z,27.30
2022-08-08T12:38:02.196Z,27.40
2022-08-08T12:40:58.472Z,27.30
2022-08-08T12:43:47.787Z,27.20
2022-08-08T12:46:26.699Z,27.30
2022-08-08T12:52:00.539Z,27.30
2022-08-08T12:54:38.186Z,27.10
2022-08-08T12:57:20.420Z,27.10
2022-08-08T13:00:04.358Z,27.00
2022-08-08T13:02:42.035Z,27.10
2022-08-08T13:05:26.915Z,27.20
2022-08-08T13:08:33.076Z,26.90
2022-08-08T13:11:17.430Z,27.00
2022-08-08T13:14:03.878Z,26.90
2022-08-08T13:16:36.283Z,27.20
2022-08-08T13:19:13.939Z,27.10
2022-08-08T13:21:52.993Z,27.50
2022-08-08T13:24:42.051Z,27.50
2022-08-08T13:27:17.450Z,27.40
2022-08-08T13:29:55.167Z,27.20
2022-08-08T13:32:30.244Z,27.20
2022-08-08T13:35:24.504Z,27.30
2022-08-08T13:38:08.016Z,27.60
2022-08-08T13:40:45.127Z,27.70
2022-08-08T13:43:18.591Z,27.50
2022-08-08T13:45:52.743Z,27.60
2022-08-08T13:48:26.180Z,27.60
2022-08-08T13:51:24.867Z,27.70
2022-08-08T13:54:00.268Z,27.70
2022-08-08T13:56:59.570Z,27.70
2022-08-08T13:59:39.247Z,27.50
2022-08-08T14:02:31.202Z,27.30
2022-08-08T14:05:20.382Z,27.40
2022-08-08T14:07:59.407Z,27.50
2022-08-08T14:10:37.467Z,27.30
2022-08-08T14:13:31.030Z,27.30
2022-08-08T14:16:12.826Z,27.30
2022-08-08T14:18:59.333Z,27.10
2022-08-08T14:21:49.112Z,27.20
2022-08-08T14:24:32.933Z,27.00
2022-08-08T14:27:14.794Z,27.00
2022-08-08T14:29:55.108Z,27.00
2022-08-08T14:32:30.992Z,27.20
2022-08-08T14:35:08.072Z,27.10
2022-08-08T14:37:59.888Z,27.10
2022-08-08T14:40:40.410Z,27.10
2022-08-08T14:43:31.528Z,27.20
2022-08-08T14:46:07.239Z,27.10
2022-08-08T14:48:57.238Z,26.90
2022-08-08T14:51:51.803Z,26.80
2022-08-08T14:54:29.539Z,26.80
2022-08-08T14:57:04.036Z,26.80
2022-08-08T14:59:50.652Z,26.60
2022-08-08T15:02:25.686Z,26.60
2022-08-08T15:05:08.130Z,26.60
2022-08-08T15:07:43.778Z,26.60
2022-08-08T15:10:28.855Z,26.60
2022-08-08T15:13:00.945Z,26.50
2022-08-08T15:16:03.288Z,26.50
2022-08-08T15:18:29.718Z,26.40
2022-08-08T15:21:02.076Z,26.30
2022-08-08T15:23:34.697Z,26.20
2022-08-08T15:26:10.889Z,26.20
2022-08-08T15:28:44.650Z,26.10
2022-08-08T15:31:55.757Z,26.00
2022-08-08T15:34:28.876Z,26.20
2022-08-08T15:37:04.986Z,26.30
2022-08-08T15:39:39.704Z,26.20
2022-08-08T15:42:17.809Z,26.10
2022-08-08T15:45:03.750Z,26.10
2022-08-08T15:47:35.607Z,26.00
2022-08-08T15:50:19.461Z,26.00
2022-08-08T15:52:53.002Z,26.00
2022-08-08T15:55:24.795Z,26.00
2022-08-08T15:57:56.511Z,26.00
2022-08-08T16:00:28.651Z,26.00
2022-08-08T16:03:00.507Z,25.90
2022-08-08T16:05:35.258Z,25.90
2022-08-08T16:08:20.032Z,25.90
2022-08-08T16:13:15.126Z,25.90
2022-08-08T16:13:46.217Z,25.90
2022-08-08T16:16:18.906Z,25.80
2022-08-08T16:18:57.934Z,25.80
2022-08-08T16:21:32.049Z,25.80
2022-08-08T16:24:06.567Z,25.80
2022-08-08T16:26:42.733Z,25.80
2022-08-08T16:29:19.403Z,25.80
2022-08-08T16:32:19.961Z,25.80
2022-08-08T16:34:53.707Z,25.90
2022-08-08T16:37:27.820Z,25.90
2022-08-08T16:40:03.384Z,25.90
2022-08-08T16:42:38.931Z,25.80
2022-08-08T16:46:36.965Z,25.80
2022-08-08T16:48:04.287Z,25.70
2022-08-08T16:50:37.125Z,25.70
2022-08-08T16:55:23.901Z,25.70
2022-08-08T16:56:03.287Z,25.70
2022-08-08T16:58:36.665Z,25.70
2022-08-08T17:01:14.685Z,25.60
2022-08-08T17:03:58.798Z,25.60
2022-08-08T17:06:37.527Z,25.50
2022-08-08T17:09:16.006Z,25.40
2022-08-08T17:11:59.477Z,25.40
2022-08-08T17:14:34.795Z,25.30
2022-08-08T17:17:41.441Z,25.20
2022-08-08T17:20:00.213Z,25.20
2022-08-08T17:22:42.236Z,25.20
2022-08-08T17:25:14.719Z,25.20
2022-08-08T17:27:49.719Z,25.20
2022-08-08T17:30:29.056Z,25.00
2022-08-08T17:34:36.965Z,25.00
2022-08-08T17:36:10.870Z,24.90
2022-08-08T17:38:45.778Z,24.70
2022-08-08T17:41:17.545Z,24.70
2022-08-08T17:44:01.011Z,24.60
2022-08-08T17:46:45.357Z,24.60
2022-08-08T17:49:24.143Z,24.50
2022-08-08T17:51:56.676Z,24.40
2022-08-08T17:54:29.247Z,24.40
2022-08-08T17:57:01.328Z,24.30
2022-08-08T17:59:36.071Z,24.10
2022-08-08T18:02:21.207Z,24.00
2022-08-08T18:04:54.938Z,23.90
2022-08-08T18:08:11.627Z,23.70
2022-08-08T18:10:20.270Z,23.50
2022-08-08T18:13:04.130Z,23.30
2022-08-08T18:15:39.543Z,23.20
2022-08-08T18:18:29.300Z,23.10
2022-08-08T18:21:10.799Z,23.00
2022-08-08T18:23:55.754Z,22.90
2022-08-08T18:26:29.139Z,22.80
2022-08-08T18:29:01.678Z,22.70
2022-08-08T18:31:33.517Z,22.70
2022-08-08T18:34:18.605Z,22.50
2022-08-08T18:36:57.635Z,22.40
2022-08-08T18:39:29.499Z,22.30
2022-08-08T18:42:03.761Z,22.10
2022-08-08T18:44:35.972Z,22.00
2022-08-08T18:47:08.094Z,21.80
2022-08-08T18:49:41.121Z,21.80
2022-08-08T18:52:33.312Z,21.70
2022-08-08T18:55:10.374Z,21.50
2022-08-08T18:57:45.335Z,21.40
2022-08-08T19:00:21.313Z,21.30
2022-08-08T19:03:01.607Z,21.20
2022-08-08T19:05:45.490Z,21.10
2022-08-08T19:08:25.296Z,21.10
2022-08-08T19:11:01.513Z,20.90
2022-08-08T19:13:53.836Z,20.80
2022-08-08T19:16:32.091Z,20.80
2022-08-08T19:19:13.296Z,20.80
2022-08-08T19:21:49.866Z,20.70
2022-08-08T19:24:48.416Z,20.70
2022-08-08T19:27:14.855Z,20.60
2022-08-08T19:29:46.820Z,20.60
2022-08-08T19:32:22.968Z,20.50
2022-08-08T19:34:55.197Z,20.50
2022-08-08T19:37:42.120Z,20.40
2022-08-08T19:40:16.163Z,20.30
2022-08-08T19:42:49.543Z,20.30
2022-08-08T19:45:57.390Z,20.20
2022-08-08T19:48:31.040Z,20.20
2022-08-08T19:51:03.760Z,20.10
2022-08-08T19:53:46.971Z,20.10
2022-08-08T19:56:25.905Z,20.00
2022-08-08T19:59:13.121Z,20.00
2022-08-08T20:02:01.197Z,20.00
2022-08-08T20:04:36.048Z,19.90
2022-08-08T20:08:28.066Z,19.90
2022-08-08T20:10:01.107Z,19.90
2022-08-08T20:12:35.543Z,19.90
2022-08-08T20:15:14.333Z,19.90
2022-08-08T20:17:49.072Z,19.80
2022-08-08T20:20:22.205Z,19.80
2022-08-08T20:22:56.291Z,19.70
2022-08-08T20:25:31.516Z,19.70
2022-08-08T20:28:07.854Z,19.60
2022-08-08T20:30:56.028Z,19.60
2022-08-08T20:33:28.407Z,19.60
2022-08-08T20:36:22.045Z,19.50
2022-08-08T20:38:54.272Z,19.50
2022-08-08T20:41:27.337Z,19.50
2022-08-08T20:44:01.029Z,19.50
2022-08-08T20:46:33.219Z,19.40
2022-08-08T20:49:07.266Z,19.40
2022-08-08T20:51:42.603Z,19.40
2022-08-08T20:54:25.886Z,19.30
2022-08-08T20:57:05.930Z,19.30
2022-08-08T20:59:49.506Z,19.20
2022-08-08T21:02:26.182Z,19.20
2022-08-08T21:05:00.812Z,19.10
2022-08-08T21:08:34.516Z,19.10
2022-08-08T21:10:28.307Z,19.10
2022-08-08T21:13:00.133Z,19.10
2022-08-08T21:16:05.618Z,19.00
2022-08-08T21:18:24.727Z,19.00
2022-08-08T21:20:59.595Z,19.10
2022-08-08T21:24:02.068Z,19.00
2022-08-08T21:26:27.178Z,19.00
2022-08-08T21:29:00.587Z,19.00
2022-08-08T21:31:53.020Z,18.90
2022-08-08T21:34:24.871Z,18.90
2022-08-08T21:37:11.321Z,18.80
2022-08-08T21:39:56.837Z,18.70
2022-08-08T21:42:29.007Z,18.70
2022-08-08T21:45:20.852Z,18.70
2022-08-08T21:48:08.060Z,18.60
2022-08-08T21:50:43.265Z,18.60
2022-08-08T21:54:32.400Z,18.60
2022-08-08T21:56:26.729Z,18.60
2022-08-08T21:58:59.139Z,18.50
2022-08-08T22:01:40.875Z,18.60
2022-08-08T22:04:13.450Z,18.50
2022-08-08T22:06:47.272Z,18.50
2022-08-08T22:09:19.291Z,18.50
2022-08-08T22:12:02.699Z,18.50
2022-08-08T22:14:42.792Z,18.50
2022-08-08T22:17:17.111Z,18.50
2022-08-08T22:20:11.247Z,18.50
2022-08-08T22:22:41.439Z,18.50
2022-08-08T22:25:24.750Z,18.50
2022-08-08T22:28:02.526Z,18.40
2022-08-08T22:30:53.157Z,18.40
2022-08-08T22:34:12.502Z,18.30
2022-08-08T22:36:20.011Z,18.30
2022-08-08T22:39:06.550Z,18.40
2022-08-08T22:41:39.205Z,18.50
2022-08-08T22:44:11.054Z,18.40
2022-08-08T22:46:42.802Z,18.30
2022-08-08T22:49:20.029Z,18.20
2022-08-08T22:51:51.998Z,18.10
2022-08-08T22:54:30.361Z,18.10
2022-08-08T22:57:11.300Z,18.00
2022-08-08T22:59:58.916Z,17.90
2022-08-08T23:02:31.755Z,17.90
2022-08-08T23:05:07.651Z,17.80
2022-08-08T23:07:57.252Z,17.80
2022-08-08T23:10:30.023Z,17.80
2022-08-08T23:13:01.737Z,17.70
2022-08-08T23:16:40.824Z,17.70
2022-08-08T23:18:28.701Z,17.60
2022-08-08T23:21:04.545Z,17.60
2022-08-08T23:23:48.820Z,17.50
2022-08-08T23:26:28.724Z,17.40
2022-08-08T23:29:01.056Z,17.40
2022-08-08T23:31:36.735Z,17.40
2022-08-08T23:34:16.697Z,17.40
2022-08-08T23:36:56.865Z,17.30
2022-08-08T23:39:42.007Z,17.30
2022-08-08T23:42:21.370Z,17.20
2022-08-08T23:44:53.408Z,17.20
2022-08-08T23:49:08.550Z,17.20
2022-08-08T23:50:31.060Z,17.20
2022-08-08T23:53:05.111Z,17.20
2022-08-08T23:55:38.356Z,17.10
2022-08-08T23:58:31.918Z,17.10
